Furqlus, Syria
Current Conditions -  °F | °C
As of 7:00 PM on Thursday 29 Jan 2015 (Local Time) from OSDI Reporting Station
Few Clouds Few Clouds  
Wind Chill: 50°   Ceiling: Unl
Heat Index: 50°   Visibility: 6mi
Dew Point: 32°   Wind: 0mph
Humidity: 50%   Direction: NA
Pressure: 29.94"   Gusts: NA
Location:  34.6°N, 37.08°E
Report Text: OSDI 291600Z 00000KT 9999 FEW030 10/00 Q1014
Loading
Personal Weather Stations






























Interactive Weather Map New forecast layout! Learn more

10-Day Weather Forecast

Advertisements
Track Severe Weather on mobile